Latest Weather Observations for Bridgetown

IDW60801

Issued at 12:32 pm WST Monday 3 August 2015 (issued every 30 minutes, with the page automatically refreshed every 10 minutes)

About weather observations | Map of weather stations | Latest weather observations for WA | Other Formats
Station Details ID: 009617 Name: BRIDGETOWN Lat: -33.95 Lon: 116.13 Height: 178.66 m
Data from the previous 72 hours. | See also: Recent months at Bridgetown
Date/Time
WST
Temp
°C
App
Temp
°C
Dew
Point
Rel
Hum
%
Delta-T
°C
Wind Press
QNH
hPa
Press
MSL
hPa
Rain
since 9 am
mm
Dir
 
Spd
km/h
Gust
km/h
Spd
kts
Gust
kts
03/12:30pm 15.6 14.7 10.6 72 2.6 NNW 6 9 3 5 1034.6 1034.8 0.0
03/12:00pm 14.7 14.3 9.7 72 2.6 NNW 2 6 1 3 1035.0 1035.2 0.0
03/11:30am 13.3 13.7 12.4 94 0.5 E 2 4 1 2 1035.4 1035.6 0.0
03/11:00am 11.7 11.9 11.7 100 0.0 SE 2 4 1 2 1035.8 1036.0 0.0
03/10:30am 9.9 9.9 9.9 100 0.0 CALM 0 0 0 0 1036.1 1036.3 0.0
03/10:00am 7.8 7.3 7.8 100 0.0 CALM 0 0 0 0 1036.3 1036.5 0.0
03/09:30am 6.4 5.6 6.4 100 0.0 CALM 0 0 0 0 1036.3 1036.5 0.0
03/09:00am 5.3 4.2 5.3 100 0.0 CALM 0 0 0 0 1036.3 1036.5 0.2
03/08:30am 4.5 3.3 4.5 100 0.0 CALM 0 0 0 0 1036.1 1036.3 0.2
03/08:00am 4.1 2.8 4.1 100 0.0 CALM 0 2 0 1 1036.2 1036.4 0.2
03/07:30am 4.0 1.9 4.0 100 0.0 NNW 4 4 2 2 1036.0 1036.2 0.0
03/07:00am 4.4 3.2 4.4 100 0.0 CALM 0 0 0 0 1035.5 1035.7 0.0
03/06:30am 4.4 3.2 4.4 100 0.0 CALM 0 0 0 0 1035.3 1035.5 0.0
03/06:00am 4.6 3.4 4.6 100 0.0 CALM 0 0 0 0 1035.3 1035.5 0.0
03/05:30am 4.8 3.6 4.8 100 0.0 CALM 0 0 0 0 1035.2 1035.4 0.0
03/05:00am 4.6 3.4 4.6 100 0.0 CALM 0 0 0 0 1035.2 1035.4 0.0
03/04:30am 4.7 3.5 4.7 100 0.0 CALM 0 0 0 0 1035.1 1035.3 0.0
03/04:00am 5.0 3.9 5.0 100 0.0 CALM 0 0 0 0 1035.0 1035.2 0.0
03/03:30am 5.3 4.2 5.3 100 0.0 CALM 0 0 0 0 1035.1 1035.3 0.0
03/03:00am 5.7 4.7 5.7 100 0.0 CALM 0 0 0 0 1035.0 1035.2 0.0
03/02:30am 5.8 4.8 5.8 100 0.0 CALM 0 0 0 0 1035.0 1035.2 0.0
03/02:00am 6.1 5.2 6.1 100 0.0 CALM 0 0 0 0 1034.9 1035.1 0.0
03/01:30am 5.7 4.3 5.7 100 0.0 NNW 2 6 1 3 1034.8 1035.0 0.0
03/01:00am 5.0 3.9 5.0 100 0.0 CALM 0 0 0 0 1034.6 1034.8 0.0
03/12:30am 5.1 4.0 5.1 100 0.0 CALM 0 0 0 0 1034.7 1034.9 0.0
03/12:00am 5.8 4.8 5.8 100 0.0 CALM 0 0 0 0 1034.8 1035.0 0.0
 
Date/Time
WST
Temp
°C
App
Temp
°C
Dew
Point
Rel
Hum
%
Delta-T
°C
Wind Press
QNH
hPa
Press
MSL
hPa
Rain
since 9 am
mm
Dir
 
Spd
km/h
Gust
km/h
Spd
kts
Gust
kts
02/11:30pm 6.8 6.1 6.8 100 0.0 CALM 0 0 0 0 1034.9 1035.1 0.0
02/11:00pm 7.9 7.4 7.9 100 0.0 CALM 0 0 0 0 1035.2 1035.4 0.0
02/10:30pm 8.5 8.1 8.4 99 0.0 CALM 0 0 0 0 1035.4 1035.6 0.0
02/10:00pm 9.9 9.9 9.8 99 0.1 CALM 0 0 0 0 1035.3 1035.5 0.0
02/09:30pm 10.0 10.0 9.9 99 0.1 CALM 0 0 0 0 1035.4 1035.6 0.0
02/09:00pm 10.6 10.4 10.3 98 0.2 SSE 2 4 1 2 1035.4 1035.6 0.0
02/08:30pm 11.2 10.4 10.9 98 0.2 S 6 9 3 5 1035.3 1035.5 0.0
02/08:00pm 11.4 11.0 11.1 98 0.2 S 4 6 2 3 1035.1 1035.3 0.0
02/07:30pm 11.8 11.8 11.2 96 0.3 S 2 9 1 5 1035.0 1035.2 0.0
02/07:00pm 12.2 11.7 10.6 90 0.8 S 4 7 2 4 1034.6 1034.8 0.0
02/06:30pm 12.4 12.6 10.5 88 1.0 CALM 0 0 0 0 1034.3 1034.5 0.0
02/06:00pm 12.5 11.9 10.4 87 1.1 SSE 4 7 2 4 1034.0 1034.2 0.0
02/05:30pm 12.5 12.7 10.7 89 0.9 CALM 0 4 0 2 1033.5 1033.7 0.0
02/05:00pm 13.0 11.9 8.5 74 2.2 SSW 4 6 2 3 1033.2 1033.4 0.0
02/04:30pm 13.9 12.3 7.9 67 3.0 S 6 9 3 5 1033.0 1033.2 0.0
02/04:00pm 14.7 13.1 6.5 58 4.0 SSE 4 9 2 5 1032.8 1033.0 0.0
02/03:30pm 14.6 12.7 6.7 59 3.9 SE 6 9 3 5 1032.6 1032.8 0.0
02/03:00pm 15.3 14.1 6.6 56 4.2 E 2 6 1 3 1032.6 1032.8 0.0
02/02:30pm 13.7 11.7 7.0 64 3.3 SSE 7 13 4 7 1032.5 1032.6 0.0
02/02:00pm 13.9 11.7 6.0 59 3.8 SE 7 13 4 7 1032.6 1032.8 0.0
02/01:30pm 14.4 14.1 8.8 69 2.9 CALM 0 2 0 1 1032.9 1033.1 0.0
02/01:00pm 13.1 11.4 8.4 73 2.3 S 7 11 4 6 1033.3 1033.5 0.0
02/12:30pm 13.7 12.6 8.5 71 2.6 SW 4 9 2 5 1033.8 1034.0 0.0
02/12:00pm 12.1 12.0 9.3 83 1.4 CALM 0 4 0 2 1034.3 1034.5 0.0
02/11:30am 12.6 11.7 9.2 80 1.7 E 4 7 2 4 1034.6 1034.8 0.0
02/11:00am 11.9 11.4 9.3 84 1.3 NE 2 6 1 3 1034.8 1035.0 0.0
02/10:30am 11.6 11.5 9.5 87 1.1 CALM 0 0 0 0 1034.9 1035.1 0.0
02/10:00am 10.1 10.1 9.8 98 0.2 CALM 0 0 0 0 1034.7 1034.9 0.0
02/09:30am 8.2 7.8 8.1 99 0.0 CALM 0 0 0 0 1034.7 1034.9 0.0
02/09:00am 6.4 5.6 6.3 99 0.0 CALM 0 0 0 0 1034.6 1034.8 0.0
02/08:30am 4.9 3.8 4.9 100 0.0 CALM 0 0 0 0 1034.5 1034.7 0.0
02/08:00am 2.6 1.0 2.6 100 0.0 CALM 0 0 0 0 1034.1 1034.3 0.0
02/07:30am 1.8 0.1 1.8 100 0.0 CALM 0 0 0 0 1033.6 1033.8 0.0
02/07:00am 1.4 -0.4 1.4 100 0.0 CALM 0 0 0 0 1033.2 1033.4 0.0
02/06:30am 1.5 -0.3 1.5 100 0.0 CALM 0 0 0 0 1032.8 1033.0 0.0
02/06:00am 1.8 0.1 1.8 100 0.0 CALM 0 0 0 0 1032.5 1032.6 0.0
02/05:30am 2.5 0.2 2.5 100 0.0 NNW 4 6 2 3 1032.4 1032.5 0.0
02/05:00am 2.6 1.0 2.6 100 0.0 CALM 0 0 0 0 1032.2 1032.4 0.0
02/04:30am 3.0 1.5 3.0 100 0.0 CALM 0 0 0 0 1032.0 1032.2 0.0
02/04:00am 4.0 2.7 4.0 100 0.0 CALM 0 0 0 0 1032.0 1032.2 0.0
02/03:30am 4.6 3.0 4.5 99 0.0 NNW 2 4 1 2 1031.9 1032.1 0.0
02/03:00am 5.9 4.9 5.8 99 0.0 CALM 0 0 0 0 1031.9 1032.1 0.0
02/02:30am 6.9 6.2 6.8 99 0.0 CALM 0 0 0 0 1031.9 1032.1 0.0
02/02:00am 7.2 6.5 7.1 99 0.0 CALM 0 0 0 0 1031.9 1032.1 0.0
02/01:30am 7.4 6.8 7.3 99 0.0 CALM 0 0 0 0 1031.7 1031.9 0.0
02/01:00am 8.4 8.0 8.3 99 0.0 CALM 0 0 0 0 1031.8 1032.0 0.0
02/12:30am 8.5 8.1 8.2 98 0.1 CALM 0 0 0 0 1031.6 1031.8 0.0
02/12:00am 8.7 8.3 8.4 98 0.1 CALM 0 0 0 0 1031.6 1031.8 0.0
 
Date/Time
WST
Temp
°C
App
Temp
°C
Dew
Point
Rel
Hum
%
Delta-T
°C
Wind Press
QNH
hPa
Press
MSL
hPa
Rain
since 9 am
mm
Dir
 
Spd
km/h
Gust
km/h
Spd
kts
Gust
kts
01/11:30pm 9.0 8.7 8.7 98 0.1 CALM 0 0 0 0 1031.5 1031.7 0.0
01/11:00pm 9.1 8.8 8.5 96 0.3 CALM 0 6 0 3 1031.5 1031.7 0.0
01/10:30pm 9.2 8.6 8.9 98 0.1 SSE 2 6 1 3 1031.5 1031.7 0.0
01/10:00pm 9.8 8.0 7.1 83 1.3 S 6 9 3 5 1031.4 1031.6 0.0
01/09:30pm 9.4 8.4 7.3 87 1.0 SSE 2 4 1 2 1031.3 1031.5 0.0
01/09:00pm 9.5 8.4 6.8 83 1.3 S 2 7 1 4 1031.0 1031.2 0.0
01/08:30pm 10.0 8.3 6.0 76 1.9 SSW 4 6 2 3 1030.7 1030.9 0.0
01/08:00pm 10.2 8.3 4.8 69 2.4 SSW 4 7 2 4 1030.5 1030.7 0.0
01/07:30pm 10.4 8.4 4.5 67 2.7 SSE 4 7 2 4 1030.1 1030.3 0.0
01/07:00pm 10.4 8.5 4.8 68 2.5 SSE 4 6 2 3 1029.7 1029.9 0.0
01/06:30pm 10.8 7.8 4.0 63 3.1 SSE 9 15 5 8 1029.3 1029.5 0.0
01/06:00pm 10.9 8.4 4.6 65 2.8 SSE 7 11 4 6 1029.0 1029.2 0.0
01/05:30pm 11.1 8.6 4.6 64 3.0 SSE 7 13 4 7 1028.7 1028.9 0.0
01/05:00pm 11.4 8.0 3.9 60 3.3 SSE 11 20 6 11 1028.3 1028.5 0.0
01/04:30pm 11.8 8.8 4.1 59 3.5 SE 9 20 5 11 1028.0 1028.2 0.0
01/04:00pm 11.8 8.2 5.0 63 3.1 SSE 13 17 7 9 1027.9 1028.1 0.0
01/03:30pm 12.0 8.7 4.5 60 3.4 SSE 11 20 6 11 1027.6 1027.7 0.0
01/03:00pm 12.4 9.5 4.6 59 3.6 SSE 9 17 5 9 1027.2 1027.3 0.0
01/02:30pm 12.4 8.9 5.3 62 3.3 S 13 22 7 12 1027.0 1027.1 0.0
01/02:00pm 12.4 8.3 4.6 59 3.6 SSE 15 26 8 14 1026.7 1026.8 0.0
01/01:30pm 12.8 9.2 5.2 60 3.6 SSE 13 24 7 13 1026.7 1026.8 0.0
01/01:00pm 12.4 8.8 4.9 60 3.5 SSE 13 24 7 13 1026.8 1026.9 0.0
01/12:30pm 12.1 8.2 5.3 63 3.2 SSE 15 24 8 13 1027.1 1027.2 0.0
01/12:00pm 12.2 8.6 5.1 62 3.3 SSE 13 20 7 11 1027.2 1027.3 0.0
01/11:30am 12.3 8.9 5.9 65 3.0 SE 13 28 7 15 1027.4 1027.5 0.0
01/11:00am 12.1 9.3 6.8 70 2.5 SE 11 19 6 10 1027.3 1027.4 0.0
01/10:30am 11.5 7.9 6.8 73 2.3 SSE 15 28 8 15 1027.3 1027.4 0.0
01/10:00am 11.9 8.6 6.6 70 2.5 SE 13 28 7 15 1027.0 1027.1 0.0
01/09:30am 11.9 9.0 6.6 70 2.5 SSE 11 22 6 12 1026.7 1026.8 0.0
01/09:00am 11.0 7.9 5.7 70 2.5 SSE 11 17 6 9 1026.1 1026.3 5.6
01/08:30am 9.7 7.5 6.1 78 1.7 SSE 7 11 4 6 1025.6 1025.8 5.6
01/08:00am 8.8 6.7 5.7 81 1.4 SSE 6 11 3 6 1025.1 1025.3 5.6
01/07:30am 8.6 6.3 5.9 83 1.2 S 7 11 4 6 1024.4 1024.6 5.6
01/07:00am 8.7 6.3 6.8 88 0.9 S 9 15 5 8 1023.9 1024.1 5.6
01/06:30am 8.7 6.9 7.8 94 0.4 S 7 11 4 6 1023.4 1023.6 5.6
01/06:00am 8.7 7.0 8.3 97 0.2 SSE 7 13 4 7 1023.2 1023.4 5.6
01/05:30am 9.1 7.5 8.8 98 0.1 SSE 7 13 4 7 1022.8 1023.0 5.6
01/05:00am 9.1 7.1 8.8 98 0.1 SSE 9 13 5 7 1022.4 1022.6 5.6
01/04:30am 9.0 7.6 8.7 98 0.1 SSE 6 9 3 5 1022.1 1022.3 5.6
01/04:00am 8.9 6.9 8.6 98 0.1 SSE 9 17 5 9 1021.8 1022.0 5.6
01/03:30am 9.2 6.5 8.9 98 0.1 S 13 22 7 12 1021.6 1021.8 5.6
01/03:00am 9.4 7.5 8.9 97 0.2 SSE 9 15 5 8 1021.7 1021.9 5.6
01/02:30am 9.8 7.3 8.2 90 0.8 SSE 11 20 6 11 1021.5 1021.7 5.6
01/02:00am 10.0 7.2 8.4 90 0.8 SSE 13 24 7 13 1021.2 1021.4 5.6
01/01:30am 10.4 7.2 8.3 87 1.0 SSE 15 24 8 13 1020.7 1020.9 5.6
01/01:00am 10.6 7.5 8.7 88 0.9 SSE 15 24 8 13 1020.1 1020.3 5.6
01/12:30am 10.6 7.9 9.0 90 0.8 SSE 13 28 7 15 1020.1 1020.3 5.6
01/12:00am 10.7 6.9 9.0 89 0.8 SE 19 33 10 18 1019.9 1020.1 5.6
 
Date/Time
WST
Temp
°C
App
Temp
°C
Dew
Point
Rel
Hum
%
Delta-T
°C
Wind Press
QNH
hPa
Press
MSL
hPa
Rain
since 9 am
mm
Dir
 
Spd
km/h
Gust
km/h
Spd
kts
Gust
kts
31/11:30pm 10.3 7.3 7.9 85 1.2 SSE 13 30 7 16 1019.9 1020.1 5.6
31/11:00pm 9.8 6.9 6.5 80 1.5 SSE 11 20 6 11 1019.7 1019.9 5.6
31/10:30pm 10.2 7.0 6.9 80 1.6 SSE 13 24 7 13 1019.6 1019.8 5.6
31/10:00pm 10.2 6.4 7.6 84 1.3 SE 17 33 9 18 1019.6 1019.8 5.6
31/09:30pm 9.9 6.6 8.0 88 0.9 SE 15 30 8 16 1019.4 1019.6 5.4
31/09:00pm 10.2 7.3 8.1 87 1.0 SSE 13 22 7 12 1019.1 1019.3 5.2
31/08:30pm 10.2 6.9 8.1 87 1.0 SE 15 28 8 15 1018.7 1018.9 5.2
31/08:00pm 10.5 7.1 7.7 83 1.4 SE 15 24 8 13 1018.3 1018.5 5.2
31/07:30pm 10.5 7.2 8.1 85 1.2 SE 15 28 8 15 1018.0 1018.2 5.2
31/07:00pm 10.1 6.8 8.2 88 0.9 SSE 15 26 8 14 1017.5 1017.7 5.2
31/06:30pm 10.3 6.6 9.4 94 0.5 SE 19 37 10 20 1017.1 1017.3 5.2
31/06:00pm 10.4 7.2 10.1 98 0.2 SSE 17 35 9 19 1016.7 1016.9 5.2
31/05:30pm 10.5 7.8 10.3 99 0.1 SE 15 30 8 16 1016.2 1016.4 5.2
31/05:00pm 11.0 7.7 10.8 99 0.1 SSE 19 32 10 17 1015.8 1015.9 5.0
31/04:30pm 11.4 8.9 11.2 99 0.1 SSE 15 30 8 16 1015.3 1015.4 5.0
31/04:00pm 11.8 10.2 11.6 99 0.1 SE 11 20 6 11 1014.8 1014.9 5.0
31/03:30pm 11.9 8.8 11.7 99 0.1 SSE 19 28 10 15 1014.1 1014.3 5.0
31/03:00pm 12.6 10.5 12.4 99 0.1 SSE 15 24 8 13 1013.6 1013.8 4.8
31/02:30pm 12.9 11.3 12.9 100 0.0 SSE 13 28 7 15 1013.7 1013.9 4.8
31/02:00pm 13.7 12.3 13.5 99 0.1 SE 13 26 7 14 1013.3 1013.5 4.8
31/01:30pm 13.7 12.3 13.5 99 0.1 SE 13 26 7 14 1013.1 1013.3 4.8
31/01:00pm 14.0 12.7 13.8 99 0.1 SE 13 20 7 11 1013.1 1013.3 4.8

Other Formats:

Comma delimited format used in spreadsheet applications
http://www.bom.gov.au/fwo/IDW60801/IDW60801.95632.axf

JavaScript Object Notation format (JSON) in row-major order
http://www.bom.gov.au/fwo/IDW60801/IDW60801.95632.json